Time;durP1;ratioP1;P1;durP2;ratioP2;P2;SDS_P1;SDS_P2;PMS_P1;PMS_P2;Temp;Humidity;BMP_temperature;BMP_pressure;BME280_temperature;BME280_humidity;BME280_pressure;Samples;Min_cycle;Max_cycle;Signal;HPM_P1;HPM_P2
2022/02/14 00:00:27;;;;;;;9.40;4.15;;;;;;;7.33;83.88;99977.28;5053024;28;20059;-48
2022/02/14 00:02:56;;;;;;;8.45;3.53;;;;;;;7.31;83.82;99973.91;5048966;28;20139;-46
2022/02/14 00:05:24;;;;;;;9.20;3.95;;;;;;;7.29;84.58;99979.25;5051073;28;20048;-48
2022/02/14 00:07:52;;;;;;;10.02;4.10;;;;;;;7.28;84.50;99972.38;5053026;28;20131;-47
2022/02/14 00:10:21;;;;;;;12.30;4.05;;;;;;;7.29;84.61;99966.19;5052911;28;20060;-55
2022/02/14 00:12:51;;;;;;;8.43;3.65;;;;;;;7.27;84.82;99966.28;5052837;28;20052;-54
2022/02/14 00:15:21;;;;;;;8.48;3.53;;;;;;;7.26;84.77;99959.38;5051898;28;20373;-46
2022/02/14 00:17:49;;;;;;;8.43;3.47;;;;;;;7.25;84.95;99962.94;5049183;28;20064;-46
2022/02/14 00:20:18;;;;;;;10.40;3.58;;;;;;;7.25;85.48;99955.09;5051347;28;20064;-47
2022/02/14 00:22:46;;;;;;;11.15;3.70;;;;;;;7.23;85.57;99962.19;5052681;28;20095;-45
2022/02/14 00:25:19;;;;;;;8.98;3.90;;;;;;;7.19;85.79;99955.47;5049011;28;20045;-48
2022/02/14 00:27:47;;;;;;;12.60;3.85;;;;;;;7.26;85.59;99955.91;5049307;28;20049;-47
2022/02/14 00:30:17;;;;;;;10.73;3.78;;;;;;;7.29;85.68;99945.25;5051135;28;20155;-47
2022/02/14 00:32:46;;;;;;;7.90;3.63;;;;;;;7.32;85.76;99944.22;5052339;28;20040;-44
2022/02/14 00:35:14;;;;;;;7.68;3.13;;;;;;;7.31;86.15;99948.63;5052438;28;20056;-45
2022/02/14 00:37:44;;;;;;;8.57;3.45;;;;;;;7.34;86.06;99948.41;5051780;28;20094;-44
2022/02/14 00:40:12;;;;;;;11.25;3.80;;;;;;;7.40;85.67;99939.31;5048650;28;20535;-55
2022/02/14 00:42:41;;;;;;;9.30;3.50;;;;;;;7.37;85.83;99936.91;5049633;28;20384;-56
2022/02/14 00:45:11;;;;;;;11.82;3.85;;;;;;;7.41;85.81;99933.97;5052055;28;20124;-55
2022/02/14 00:47:39;;;;;;;8.50;3.33;;;;;;;7.47;85.57;99929.28;5049772;28;20056;-44
2022/02/14 00:50:08;;;;;;;8.15;3.17;;;;;;;7.38;86.21;99926.34;5048331;28;20053;-44
2022/02/14 00:52:37;;;;;;;9.57;3.00;;;;;;;7.45;86.38;99924.16;5052037;28;20079;-55
2022/02/14 00:55:08;;;;;;;10.73;3.47;;;;;;;7.42;86.08;99913.91;5052330;28;20052;-54
2022/02/14 00:57:37;;;;;;;10.68;3.33;;;;;;;7.40;86.43;99919.25;5052419;28;20475;-56
2022/02/14 01:00:07;;;;;;;9.15;3.55;;;;;;;7.48;86.21;99915.28;5052305;28;20411;-56
2022/02/14 01:02:36;;;;;;;8.93;3.28;;;;;;;7.45;86.48;99914.53;5052229;28;20049;-45
2022/02/14 01:05:04;;;;;;;9.88;3.00;;;;;;;7.48;86.34;99908.25;5051079;28;20041;-56
2022/02/14 01:07:32;;;;;;;9.75;3.28;;;;;;;7.45;86.82;99898.00;5048320;28;20041;-55
2022/02/14 01:10:00;;;;;;;6.63;2.78;;;;;;;7.46;87.10;99899.69;5048992;28;20041;-53
2022/02/14 01:12:30;;;;;;;9.27;3.53;;;;;;;7.50;87.30;99901.16;5051571;28;20068;-53
2022/02/14 01:14:58;;;;;;;11.48;3.83;;;;;;;7.49;86.92;99889.00;5052251;28;20152;-55
2022/02/14 01:17:26;;;;;;;8.65;2.92;;;;;;;7.52;87.30;99894.03;5052347;28;20540;-55
2022/02/14 01:19:54;;;;;;;9.80;3.30;;;;;;;7.56;87.02;99890.25;5051882;28;20083;-54
2022/02/14 01:22:22;;;;;;;8.10;3.20;;;;;;;7.62;86.94;99891.59;5051938;28;20404;-49
2022/02/14 01:24:50;;;;;;;5.50;3.00;;;;;;;7.65;87.24;99877.47;5049234;28;20510;-46
2022/02/14 01:27:18;;;;;;;8.98;2.85;;;;;;;7.66;87.29;99868.69;5048409;28;20051;-55
2022/02/14 01:29:48;;;;;;;9.30;3.10;;;;;;;7.63;87.09;99869.75;5050266;28;20127;-54
2022/02/14 01:32:19;;;;;;;10.68;3.22;;;;;;;7.66;87.07;99863.47;5050570;28;20045;-56
2022/02/14 01:34:47;;;;;;;7.68;2.75;;;;;;;7.59;87.64;99852.56;5048223;28;20049;-54
2022/02/14 01:37:16;;;;;;;10.10;2.90;;;;;;;7.63;87.32;99851.41;5050399;28;20060;-56
2022/02/14 01:39:44;;;;;;;6.50;2.85;;;;;;;7.70;87.71;99851.84;5055728;28;20056;-45
2022/02/14 01:42:12;;;;;;;9.05;3.33;;;;;;;7.71;87.25;99838.66;5055725;28;20052;-45
2022/02/14 01:44:42;;;;;;;8.75;3.00;;;;;;;7.69;87.50;99834.47;5054869;28;20057;-54
2022/02/14 01:47:14;;;;;;;10.57;2.72;;;;;;;7.72;87.34;99836.88;5051963;28;20339;-48
2022/02/14 01:49:44;;;;;;;9.13;3.40;;;;;;;7.68;87.61;99830.19;5053877;28;20518;-45
2022/02/14 01:52:13;;;;;;;8.32;2.78;;;;;;;7.75;87.04;99828.81;5055405;28;20052;-44
2022/02/14 01:54:43;;;;;;;10.15;2.90;;;;;;;7.75;87.75;99829.63;5051589;28;20052;-44
2022/02/14 01:57:12;;;;;;;8.15;3.17;;;;;;;7.72;87.89;99818.56;5051834;28;20057;-55
2022/02/14 01:59:41;;;;;;;7.75;2.92;;;;;;;7.73;87.64;99807.13;5055453;28;20120;-55
2022/02/14 02:02:10;;;;;;;9.63;2.85;;;;;;;7.77;87.76;99819.06;5055536;28;20051;-46
2022/02/14 02:04:42;;;;;;;7.20;2.78;;;;;;;7.81;87.33;99801.38;5055314;28;20110;-47
2022/02/14 02:07:11;;;;;;;8.52;2.92;;;;;;;7.81;87.48;99793.50;5052306;28;20483;-47
2022/02/14 02:09:40;;;;;;;9.68;2.60;;;;;;;7.78;87.51;99790.19;5051093;28;20106;-48
2022/02/14 02:12:23;;;;;;;8.75;2.80;;;;;;;7.86;87.30;99787.00;5055131;28;20052;-46
2022/02/14 02:14:53;;;;;;;10.13;3.03;;;;;;;7.75;87.67;99786.94;5055135;28;20041;-56
2022/02/14 02:17:23;;;;;;;6.57;2.40;;;;;;;7.76;87.69;99781.59;5055461;28;20119;-54
2022/02/14 02:19:52;;;;;;;7.07;2.90;;;;;;;7.79;87.54;99777.91;5054990;28;20052;-54
2022/02/14 02:22:21;;;;;;;8.60;2.42;;;;;;;7.71;88.49;99778.44;5053841;28;20454;-54
2022/02/14 02:24:52;;;;;;;10.80;3.22;;;;;;;7.63;88.63;99769.47;5050687;28;20048;-53
2022/02/14 02:27:25;;;;;;;8.70;2.95;;;;;;;7.68;88.57;99770.81;5052729;28;20111;-53
2022/02/14 02:29:53;;;;;;;7.53;2.78;;;;;;;7.63;88.70;99761.63;5054679;28;20052;-53
2022/02/14 02:32:21;;;;;;;9.20;2.78;;;;;;;7.68;88.65;99762.13;5053543;28;20049;-53
2022/02/14 02:34:50;;;;;;;6.15;2.67;;;;;;;7.59;88.67;99754.00;5054041;28;20049;-55
2022/02/14 02:37:19;;;;;;;7.55;3.00;;;;;;;7.60;88.32;99754.81;5050673;28;20491;-55
2022/02/14 02:39:47;;;;;;;8.30;3.00;;;;;;;7.56;88.82;99743.72;5052502;28;20056;-54
2022/02/14 02:42:18;;;;;;;8.38;2.92;;;;;;;7.57;88.51;99741.97;5054532;28;20037;-53
2022/02/14 02:44:47;;;;;;;9.77;3.20;;;;;;;7.56;88.68;99738.50;5054549;28;20056;-54
2022/02/14 02:47:17;;;;;;;8.20;3.13;;;;;;;7.53;88.59;99733.47;5054330;28;20069;-43
2022/02/14 02:49:46;;;;;;;8.57;2.63;;;;;;;7.48;88.73;99730.34;5053654;28;20052;-44
2022/02/14 02:52:16;;;;;;;7.88;2.97;;;;;;;7.55;88.76;99729.00;5052194;28;20041;-44
2022/02/14 02:54:45;;;;;;;9.90;3.33;;;;;;;7.53;88.78;99725.63;5050141;28;20045;-46
2022/02/14 02:57:14;;;;;;;8.95;2.63;;;;;;;7.51;89.10;99722.28;5053248;28;20053;-48
2022/02/14 02:59:44;;;;;;;7.38;2.55;;;;;;;7.54;89.20;99723.84;5053779;28;20508;-46
2022/02/14 03:02:13;;;;;;;6.85;2.72;;;;;;;7.52;89.12;99718.72;5054433;28;20553;-50
2022/02/14 03:04:42;;;;;;;6.45;2.33;;;;;;;7.60;89.19;99712.94;5054354;28;20052;-46
2022/02/14 03:07:10;;;;;;;7.20;3.13;;;;;;;7.60;89.04;99716.38;5054165;28;20041;-45
2022/02/14 03:09:38;;;;;;;7.53;2.38;;;;;;;7.60;88.99;99711.16;5054455;28;20544;-48
2022/02/14 03:12:07;;;;;;;8.60;2.42;;;;;;;7.56;89.84;99712.31;5053985;28;20103;-50
2022/02/14 03:14:38;;;;;;;6.65;2.40;;;;;;;7.57;89.58;99707.94;5052857;28;20427;-45
2022/02/14 03:17:11;;;;;;;8.88;3.00;;;;;;;7.62;89.36;99705.81;5050305;28;20499;-45
2022/02/14 03:19:39;;;;;;;7.83;2.43;;;;;;;7.67;89.14;99701.09;5052379;28;20502;-48
2022/02/14 03:22:07;;;;;;;11.77;2.60;;;;;;;7.69;89.08;99700.97;5053638;28;20412;-45
2022/02/14 03:24:36;;;;;;;7.43;2.47;;;;;;;7.73;89.39;99686.72;5053811;28;20051;-46
2022/02/14 03:27:04;;;;;;;8.02;2.38;;;;;;;7.74;89.41;99677.94;5053702;28;20099;-46
2022/02/14 03:29:32;;;;;;;8.43;2.22;;;;;;;7.83;89.14;99682.53;5051619;28;20064;-45
2022/02/14 03:32:00;;;;;;;7.35;2.70;;;;;;;7.86;88.98;99674.44;5049234;28;20447;-43
2022/02/14 03:34:30;;;;;;;8.02;2.47;;;;;;;7.90;88.72;99673.28;5052882;28;20060;-48
2022/02/14 03:36:58;;;;;;;9.32;2.38;;;;;;;7.97;88.56;99663.19;5049038;28;20462;-47
2022/02/14 03:39:26;;;;;;;5.55;2.20;;;;;;;8.04;88.12;99668.81;5050052;28;20061;-46
2022/02/14 03:41:56;;;;;;;8.30;2.38;;;;;;;8.13;87.75;99668.16;5053474;28;20057;-46
2022/02/14 03:44:24;;;;;;;10.07;2.42;;;;;;;8.16;87.81;99667.09;5053795;28;20048;-45
2022/02/14 03:46:53;;;;;;;5.78;2.20;;;;;;;8.20;87.56;99658.88;5050652;28;20498;-44
2022/02/14 03:49:21;;;;;;;7.95;2.50;;;;;;;8.25;87.46;99661.19;5049779;28;20057;-46
2022/02/14 03:51:50;;;;;;;6.18;2.00;;;;;;;8.26;87.29;99657.59;5053333;28;20041;-48
2022/02/14 03:54:18;;;;;;;5.32;2.10;;;;;;;8.35;86.89;99656.09;5053366;28;20507;-46
2022/02/14 03:56:46;;;;;;;7.43;2.25;;;;;;;8.37;86.64;99644.53;5053312;28;20069;-45
2022/02/14 03:59:14;;;;;;;7.65;2.20;;;;;;;8.42;86.33;99649.41;5052881;28;20447;-47
2022/02/14 04:01:46;;;;;;;5.95;2.58;;;;;;;8.47;85.94;99649.94;5053123;28;20059;-44
2022/02/14 04:04:14;;;;;;;6.30;2.10;;;;;;;8.51;85.76;99640.06;5053096;28;20429;-47
2022/02/14 04:06:42;;;;;;;8.52;2.40;;;;;;;8.52;85.67;99639.97;5051089;28;20072;-45
2022/02/14 04:09:11;;;;;;;8.70;1.98;;;;;;;8.56;85.37;99637.94;5048744;28;20110;-43
2022/02/14 04:11:40;;;;;;;6.82;2.10;;;;;;;8.61;84.94;99635.78;5051594;28;20370;-47
2022/02/14 04:14:08;;;;;;;6.97;2.13;;;;;;;8.58;85.36;99633.41;5052930;28;20045;-55
2022/02/14 04:16:36;;;;;;;5.35;2.05;;;;;;;8.65;84.83;99636.41;5052714;28;20060;-55
2022/02/14 04:19:04;;;;;;;6.28;2.28;;;;;;;8.62;85.52;99622.56;5052708;28;20045;-55
2022/02/14 04:21:34;;;;;;;10.10;2.50;;;;;;;8.69;84.83;99628.19;5052899;28;20052;-45
2022/02/14 04:24:02;;;;;;;8.30;2.28;;;;;;;8.75;84.94;99629.50;5049297;28;20499;-46
2022/02/14 04:26:32;;;;;;;7.38;2.17;;;;;;;8.68;84.86;99629.13;5047671;28;20045;-45
2022/02/14 04:29:00;;;;;;;5.82;2.42;;;;;;;8.66;85.15;99630.19;5051850;28;20053;-43
2022/02/14 04:31:30;;;;;;;7.32;2.20;;;;;;;8.69;84.81;99637.84;5052567;28;20100;-47
2022/02/14 04:33:58;;;;;;;6.50;2.00;;;;;;;8.72;84.80;99633.19;5052856;28;20052;-44
2022/02/14 04:36:26;;;;;;;7.18;2.17;;;;;;;8.71;84.50;99625.44;5050232;28;20471;-46
2022/02/14 04:38:54;;;;;;;7.25;2.03;;;;;;;8.68;84.93;99628.31;5047697;28;20048;-44
2022/02/14 04:41:24;;;;;;;10.23;2.28;;;;;;;8.75;84.50;99637.34;5050654;28;20049;-44
2022/02/14 04:43:53;;;;;;;9.20;2.63;;;;;;;8.76;84.43;99636.41;5052207;28;20040;-44
2022/02/14 04:46:21;;;;;;;6.28;2.10;;;;;;;8.71;84.70;99631.53;5051956;28;20072;-47
2022/02/14 04:48:49;;;;;;;6.03;2.20;;;;;;;8.77;84.61;99635.47;5049635;28;20048;-48
2022/02/14 04:51:17;;;;;;;3.50;1.90;;;;;;;8.83;84.06;99627.13;5048132;28;20059;-47
2022/02/14 04:53:45;;;;;;;6.13;2.13;;;;;;;8.83;84.34;99640.22;5051052;28;20069;-45
2022/02/14 04:56:14;;;;;;;6.03;2.13;;;;;;;8.83;84.13;99623.66;5052469;28;20048;-47
2022/02/14 04:58:42;;;;;;;7.95;2.13;;;;;;;8.84;84.68;99625.34;5051630;28;20102;-47
2022/02/14 05:01:11;;;;;;;6.75;2.33;;;;;;;8.85;83.80;99619.97;5048793;28;20132;-49
2022/02/14 05:03:40;;;;;;;8.57;2.45;;;;;;;8.91;83.71;99618.66;5050483;28;20085;-49
2022/02/14 05:06:09;;;;;;;4.32;1.80;;;;;;;8.87;84.03;99615.44;5052145;28;20052;-50
2022/02/14 05:08:39;;;;;;;7.03;2.47;;;;;;;8.87;83.96;99610.19;5052022;28;20522;-49
2022/02/14 05:11:07;;;;;;;8.85;1.88;;;;;;;9.00;83.24;99614.47;5051198;28;20407;-46
2022/02/14 05:13:39;;;;;;;6.10;2.20;;;;;;;8.98;83.97;99616.41;5052072;28;20140;-44
2022/02/14 05:16:08;;;;;;;4.97;1.90;;;;;;;8.94;83.80;99618.41;5049440;28;20049;-45
2022/02/14 05:18:37;;;;;;;7.13;2.25;;;;;;;9.01;83.57;99611.72;5048548;28;20568;-45
2022/02/14 05:21:06;;;;;;;5.07;2.03;;;;;;;9.00;83.55;99604.84;5050939;28;20045;-44
2022/02/14 05:23:34;;;;;;;5.35;1.80;;;;;;;9.06;83.56;99608.78;5051246;28;20167;-45
2022/02/14 05:26:03;;;;;;;6.32;1.90;;;;;;;9.03;83.08;99614.25;5046652;28;20132;-55
2022/02/14 05:28:31;;;;;;;5.95;1.92;;;;;;;9.08;82.83;99612.09;5050507;28;20102;-44
2022/02/14 05:30:59;;;;;;;8.55;1.83;;;;;;;9.09;83.28;99606.75;5051906;28;20053;-45
2022/02/14 05:33:27;;;;;;;4.82;1.75;;;;;;;9.14;82.36;99606.38;5052143;28;20045;-54
2022/02/14 05:35:56;;;;;;;5.53;1.85;;;;;;;9.17;81.92;99602.69;5047397;28;20107;-47
2022/02/14 05:38:25;;;;;;;10.18;1.85;;;;;;;9.19;82.66;99599.00;5048832;28;20403;-49
2022/02/14 05:40:53;;;;;;;4.18;1.83;;;;;;;9.17;82.45;99594.81;5051734;28;20060;-45
2022/02/14 05:43:21;;;;;;;4.00;1.80;;;;;;;9.24;82.11;99596.84;5051828;28;20095;-47
2022/02/14 05:45:50;;;;;;;3.67;1.70;;;;;;;9.20;82.53;99599.81;5049105;28;20080;-56
2022/02/14 05:48:18;;;;;;;6.25;1.63;;;;;;;9.19;82.19;99591.13;5048484;28;20045;-56
2022/02/14 05:50:46;;;;;;;4.75;2.13;;;;;;;9.26;81.77;99594.91;5051783;28;20141;-56
2022/02/14 05:53:16;;;;;;;5.22;1.55;;;;;;;9.22;82.33;99590.88;5050117;28;20372;-55
2022/02/14 05:55:44;;;;;;;4.75;1.70;;;;;;;9.23;82.36;99589.91;5046789;28;20057;-55
2022/02/14 05:58:12;;;;;;;4.18;1.70;;;;;;;9.21;82.50;99586.56;5050784;28;20080;-56
2022/02/14 06:00:40;;;;;;;4.22;1.60;;;;;;;9.23;82.26;99592.53;5048896;28;20102;-51
2022/02/14 06:03:08;;;;;;;6.60;1.88;;;;;;;9.23;82.29;99591.69;5048528;28;20053;-54
2022/02/14 06:05:36;;;;;;;6.47;2.00;;;;;;;9.28;82.08;99594.78;5051467;28;20049;-56
2022/02/14 06:08:05;;;;;;;5.10;1.80;;;;;;;9.33;82.10;99594.44;5051328;28;20136;-46
2022/02/14 06:10:34;;;;;;;8.07;1.65;;;;;;;9.30;82.40;99585.84;5051365;28;20451;-48
2022/02/14 06:13:02;;;;;;;4.97;1.60;;;;;;;9.31;82.44;99576.16;5051274;28;20511;-44
2022/02/14 06:15:36;;;;;;;8.70;2.13;;;;;;;9.29;82.65;99586.78;5048252;28;20053;-44
2022/02/14 06:18:04;;;;;;;3.78;1.77;;;;;;;9.25;83.06;99593.25;5049010;28;20045;-43
2022/02/14 06:20:32;;;;;;;6.38;1.90;;;;;;;9.27;82.83;99586.09;5051689;28;20091;-44
2022/02/14 06:23:00;;;;;;;6.95;1.92;;;;;;;9.24;83.14;99596.00;5052951;28;20037;-45
2022/02/14 06:25:29;;;;;;;3.92;1.63;;;;;;;9.26;82.60;99594.91;5054852;28;20041;-43
2022/02/14 06:27:58;;;;;;;5.03;1.70;;;;;;;9.24;82.84;99596.00;5054980;28;20053;-44
2022/02/14 06:30:26;;;;;;;4.72;1.70;;;;;;;9.22;83.58;99606.59;5054929;28;20102;-43
2022/02/14 06:32:54;;;;;;;3.17;1.50;;;;;;;9.20;83.24;99605.06;5052874;28;20041;-47
2022/02/14 06:35:23;;;;;;;5.15;1.90;;;;;;;9.19;83.14;99599.00;5051462;28;20079;-44
2022/02/14 06:37:51;;;;;;;5.85;1.63;;;;;;;9.24;83.24;99603.84;5052871;28;20396;-46
2022/02/14 06:40:19;;;;;;;5.63;1.60;;;;;;;9.25;83.48;99603.72;5054208;28;20048;-45
2022/02/14 06:42:49;;;;;;;7.13;2.08;;;;;;;9.23;83.66;99603.03;5054025;28;20051;-48
2022/02/14 06:45:20;;;;;;;6.40;2.10;;;;;;;9.24;83.72;99609.09;5054338;28;20163;-46
2022/02/14 06:47:53;;;;;;;3.50;1.83;;;;;;;9.23;83.98;99610.06;5052067;28;20128;-47
2022/02/14 06:50:21;;;;;;;5.10;1.60;;;;;;;9.24;83.93;99609.09;5051170;28;20048;-47
2022/02/14 06:52:49;;;;;;;4.22;1.42;;;;;;;9.29;83.64;99610.41;5052996;28;20037;-45
2022/02/14 06:55:17;;;;;;;4.03;1.50;;;;;;;9.31;83.92;99607.66;5054487;28;20049;-46
2022/02/14 06:57:45;;;;;;;3.63;1.45;;;;;;;9.30;83.79;99614.69;5054406;28;20454;-54
2022/02/14 07:00:14;;;;;;;5.03;1.48;;;;;;;9.33;84.57;99620.69;5054280;28;20052;-48
2022/02/14 07:02:44;;;;;;;4.85;1.90;;;;;;;9.35;84.32;99619.56;5054627;28;20488;-46
2022/02/14 07:05:15;;;;;;;7.15;2.15;;;;;;;9.43;84.65;99608.47;5053848;28;20041;-44
2022/02/14 07:07:43;;;;;;;4.97;1.90;;;;;;;9.49;84.71;99618.50;5054329;28;20045;-47
2022/02/14 07:10:13;;;;;;;2.58;1.45;;;;;;;9.57;84.82;99621.34;5054458;28;20460;-47
2022/02/14 07:12:42;;;;;;;4.32;1.60;;;;;;;9.55;85.61;99632.91;5053984;28;20029;-47
2022/02/14 07:15:11;;;;;;;4.40;1.60;;;;;;;9.61;85.13;99620.13;5052891;28;20106;-47
2022/02/14 07:17:39;;;;;;;4.18;1.42;;;;;;;9.69;84.71;99627.38;5053970;28;20060;-47
2022/02/14 07:20:10;;;;;;;4.32;1.88;;;;;;;9.68;84.66;99636.22;5053898;28;20060;-45
2022/02/14 07:22:38;;;;;;;3.13;1.65;;;;;;;9.70;85.21;99639.53;5053885;28;20048;-46
2022/02/14 07:25:07;;;;;;;7.40;1.75;;;;;;;9.77;84.39;99639.88;5053974;28;20522;-49
2022/02/14 07:27:36;;;;;;;4.68;1.83;;;;;;;9.75;85.58;99642.63;5054246;28;20426;-47
2022/02/14 07:30:05;;;;;;;8.95;1.77;;;;;;;9.70;85.37;99642.19;5053799;28;20072;-46
2022/02/14 07:32:33;;;;;;;4.85;1.48;;;;;;;9.74;85.47;99642.78;5053941;28;20048;-49
2022/02/14 07:35:02;;;;;;;4.60;1.45;;;;;;;9.77;86.14;99639.88;5052908;28;20048;-50
2022/02/14 07:37:32;;;;;;;6.38;1.77;;;;;;;9.81;85.31;99642.13;5053454;28;20148;-47
2022/02/14 07:40:01;;;;;;;6.97;1.70;;;;;;;9.81;86.01;99663.13;5053533;28;20060;-46
2022/02/14 07:42:29;;;;;;;5.00;1.60;;;;;;;9.82;86.75;99658.75;5053459;28;20055;-49
2022/02/14 07:44:57;;;;;;;3.88;1.55;;;;;;;9.85;87.28;99657.66;5053324;28;20057;-46
2022/02/14 07:47:25;;;;;;;6.07;1.40;;;;;;;9.80;88.50;99660.63;5053650;28;20051;-46
2022/02/14 07:49:53;;;;;;;2.88;1.55;;;;;;;9.75;89.76;99655.78;5053358;28;20064;-47
2022/02/14 07:52:22;;;;;;;6.25;1.52;;;;;;;9.74;89.24;99643.59;5053302;28;20075;-48
2022/02/14 07:54:53;;;;;;;4.82;1.83;;;;;;;9.76;89.69;99651.34;5053700;28;20479;-46
2022/02/14 07:57:21;;;;;;;6.53;1.50;;;;;;;9.74;89.74;99651.47;5053384;28;20176;-48
2022/02/14 07:59:49;;;;;;;6.63;1.67;;;;;;;9.73;90.07;99648.97;5053464;28;20442;-44
2022/02/14 08:02:17;;;;;;;2.85;1.45;;;;;;;9.75;89.25;99654.94;5053318;28;20495;-45
2022/02/14 08:04:46;;;;;;;5.25;1.60;;;;;;;9.78;89.00;99658.13;5053180;28;20067;-43
2022/02/14 08:07:14;;;;;;;3.88;1.70;;;;;;;9.76;89.04;99659.22;5053165;28;20052;-45
2022/02/14 08:09:42;;;;;;;3.30;1.50;;;;;;;9.80;88.61;99653.63;5053073;28;20053;-46
2022/02/14 08:12:12;;;;;;;5.97;1.50;;;;;;;9.79;89.42;99653.75;5052807;28;20110;-45
2022/02/14 08:14:42;;;;;;;6.43;1.50;;;;;;;9.81;88.37;99657.88;5052956;28;20507;-46
2022/02/14 08:17:10;;;;;;;5.38;1.65;;;;;;;9.89;87.91;99661.69;5052826;28;20052;-46
2022/02/14 08:19:38;;;;;;;4.15;1.50;;;;;;;9.90;88.49;99651.06;5052857;28;20065;-46
2022/02/14 08:22:06;;;;;;;3.75;1.30;;;;;;;9.89;89.16;99666.97;5052840;28;20045;-45
2022/02/14 08:24:34;;;;;;;4.35;1.50;;;;;;;9.85;90.07;99700.50;5052034;28;20048;-44
2022/02/14 08:27:03;;;;;;;5.45;1.35;;;;;;;9.69;95.52;99719.25;5052335;28;20437;-50
2022/02/14 08:29:33;;;;;;;2.65;0.80;;;;;;;9.47;100.00;99733.25;5052465;28;20052;-48
2022/02/14 08:32:01;;;;;;;2.78;0.98;;;;;;;9.25;100.00;99740.16;5052590;28;20041;-48
2022/02/14 08:34:30;;;;;;;1.33;0.70;;;;;;;8.94;100.00;99739.91;5052702;28;20134;-48
2022/02/14 08:36:58;;;;;;;2.45;0.80;;;;;;;8.77;100.00;99754.25;5052321;28;20065;-49
2022/02/14 08:39:26;;;;;;;2.22;0.60;;;;;;;8.62;100.00;99756.25;5052072;28;20431;-48
2022/02/14 08:41:54;;;;;;;1.10;0.88;;;;;;;8.57;100.00;99758.34;5052179;28;20048;-48
2022/02/14 08:44:23;;;;;;;1.58;0.77;;;;;;;8.43;100.00;99758.53;5052613;28;20079;-50
2022/02/14 08:46:52;;;;;;;2.88;0.80;;;;;;;8.46;100.00;99768.81;5052411;28;20072;-48
2022/02/14 08:49:24;;;;;;;1.75;0.80;;;;;;;8.39;100.00;99767.56;5052597;28;20044;-45
2022/02/14 08:51:52;;;;;;;0.60;0.60;;;;;;;8.34;100.00;99780.16;5052602;28;20057;-47
2022/02/14 08:54:21;;;;;;;3.55;0.63;;;;;;;8.27;100.00;99780.59;5052296;28;20045;-45
2022/02/14 08:56:49;;;;;;;3.17;0.88;;;;;;;8.29;100.00;99776.09;5052072;28;20484;-45
2022/02/14 08:59:19;;;;;;;1.58;0.77;;;;;;;8.39;100.00;99778.03;5052505;28;20045;-47
2022/02/14 09:01:48;;;;;;;3.22;0.70;;;;;;;8.29;100.00;99781.31;5051250;28;20568;-46
2022/02/14 09:04:18;;;;;;;2.28;0.82;;;;;;;8.30;100.00;99779.53;5052141;28;20409;-47
2022/02/14 09:06:46;;;;;;;2.28;0.60;;;;;;;8.37;100.00;99782.53;5052118;28;20110;-47
2022/02/14 09:09:29;;;;;;;1.20;0.55;;;;;;;8.28;100.00;99787.50;5052338;28;20044;-45
2022/02/14 09:12:00;;;;;;;0.90;0.70;;;;;;;8.28;100.00;99800.59;5052060;28;20048;-47
2022/02/14 09:14:28;;;;;;;0.73;0.60;;;;;;;8.34;100.00;99795.88;5052122;28;20547;-47
2022/02/14 09:16:56;;;;;;;1.75;0.70;;;;;;;8.33;100.00;99797.66;5052012;28;20052;-45
2022/02/14 09:19:26;;;;;;;1.58;0.60;;;;;;;8.28;100.00;99800.59;5052269;28;20506;-44
2022/02/14 09:21:54;;;;;;;1.42;0.63;;;;;;;8.31;100.00;99809.19;5052380;28;20048;-45
2022/02/14 09:24:22;;;;;;;1.83;0.50;;;;;;;8.35;100.00;99813.28;5051982;28;20098;-48
2022/02/14 09:26:56;;;;;;;1.45;0.57;;;;;;;8.34;100.00;99804.56;5051976;28;20052;-46
2022/02/14 09:29:24;;;;;;;1.08;0.52;;;;;;;8.33;100.00;99812.53;5051878;28;20047;-47
2022/02/14 09:31:53;;;;;;;1.05;0.50;;;;;;;8.38;100.00;99818.28;5051593;28;20542;-47
2022/02/14 09:34:21;;;;;;;2.42;0.68;;;;;;;8.44;100.00;99823.09;5051773;28;20056;-45
2022/02/14 09:36:53;;;;;;;0.93;0.52;;;;;;;8.50;100.00;99827.06;5051380;28;20052;-47
2022/02/14 09:39:21;;;;;;;0.50;0.45;;;;;;;8.66;100.00;99826.78;5051810;28;20048;-44
2022/02/14 09:41:50;;;;;;;0.38;0.38;;;;;;;8.55;100.00;99828.41;5050597;28;20088;-45
2022/02/14 09:44:18;;;;;;;1.33;0.75;;;;;;;8.65;100.00;99825.13;5051821;28;20090;-46
2022/02/14 09:46:47;;;;;;;1.42;0.70;;;;;;;8.67;100.00;99824.06;5049770;28;20063;-48
2022/02/14 09:49:16;;;;;;;1.40;0.80;;;;;;;8.72;100.00;99831.59;5048016;28;20052;-47
2022/02/14 09:51:44;;;;;;;1.30;0.70;;;;;;;8.76;100.00;99833.03;5050160;28;20087;-45
2022/02/14 09:54:14;;;;;;;2.30;1.02;;;;;;;8.79;100.00;99838.91;5051344;28;20048;-47
2022/02/14 09:56:44;;;;;;;2.35;1.25;;;;;;;8.76;100.00;99836.47;5051505;28;20052;-46
2022/02/14 09:59:12;;;;;;;4.47;1.48;;;;;;;8.84;100.00;99835.09;5054773;28;20523;-46
2022/02/14 10:01:44;;;;;;;3.67;1.50;;;;;;;8.91;100.00;99842.38;5055036;28;20110;-47
2022/02/14 10:04:12;;;;;;;4.00;1.60;;;;;;;8.98;100.00;99855.03;5052072;28;20096;-45
2022/02/14 10:06:42;;;;;;;5.05;1.45;;;;;;;9.05;100.00;99851.00;5050347;28;20079;-47
2022/02/14 10:09:11;;;;;;;4.53;2.05;;;;;;;9.20;100.00;99852.47;5053559;28;20803;-46
2022/02/14 10:11:59;;;;;;;3.72;1.90;;;;;;;9.25;100.00;99866.09;5050413;28;20049;-49
2022/02/14 10:14:27;;;;;;;4.60;2.10;;;;;;;9.42;100.00;99861.34;5052843;28;20048;-49
2022/02/14 10:17:04;;;;;;;5.20;2.42;;;;;;;9.45;100.00;99872.47;5055031;28;20087;-48
2022/02/14 10:19:34;;;;;;;5.00;2.47;;;;;;;9.67;100.00;99869.97;5055033;28;20048;-48
2022/02/14 10:22:07;;;;;;;4.63;2.40;;;;;;;9.72;100.00;99875.72;5053461;28;20129;-47
2022/02/14 10:24:40;;;;;;;5.85;2.65;;;;;;;9.80;100.00;99875.97;5050039;28;20053;-45
2022/02/14 10:27:11;;;;;;;4.63;2.75;;;;;;;9.92;100.00;99872.38;5052903;28;20045;-48
2022/02/14 10:29:40;;;;;;;4.93;2.92;;;;;;;10.16;100.00;99876.69;5055055;28;20053;-48
2022/02/14 10:32:10;;;;;;;5.00;2.95;;;;;;;10.24;100.00;99874.28;5053750;28;20430;-49
2022/02/14 10:34:40;;;;;;;3.85;2.60;;;;;;;10.27;100.00;99862.69;5050957;28;20499;-45
2022/02/14 10:37:10;;;;;;;4.07;2.28;;;;;;;10.28;99.82;99878.34;5050240;28;20049;-46
2022/02/14 10:39:39;;;;;;;5.45;2.65;;;;;;;10.62;99.40;99878.31;5051427;28;20049;-46
2022/02/14 10:42:11;;;;;;;4.20;2.38;;;;;;;10.91;96.68;99874.28;5049391;28;20060;-44
2022/02/14 10:47:29;;;;;;;5.90;3.00;;;;;;;11.65;92.70;99871.56;5054722;28;20124;-45
2022/02/14 10:50:01;;;;;;;3.88;2.50;;;;;;;11.98;90.84;99885.50;5054727;28;20075;-48
2022/02/14 10:52:34;;;;;;;5.68;2.78;;;;;;;12.18;88.30;99888.22;5070597;28;20483;-43
2022/02/14 10:55:04;;;;;;;5.43;2.40;;;;;;;12.00;85.64;99893.28;5056499;28;20040;-46
2022/02/14 10:57:37;;;;;;;4.57;2.55;;;;;;;11.97;86.84;99911.97;5064530;28;20550;-44
2022/02/14 11:00:08;;;;;;;5.25;2.40;;;;;;;11.45;87.69;99918.03;5065141;28;20045;-46
2022/02/14 11:02:38;;;;;;;5.60;2.70;;;;;;;11.30;87.89;99907.00;5059591;28;20044;-46
2022/02/14 11:05:07;;;;;;;5.15;2.40;;;;;;;11.18;89.12;99923.81;5054974;28;20120;-44
2022/02/14 11:07:37;;;;;;;5.13;2.53;;;;;;;11.27;89.35;99920.38;5064696;28;20056;-44
2022/02/14 11:10:09;;;;;;;5.53;2.40;;;;;;;11.20;89.02;99924.50;5070000;28;20485;-44
2022/02/14 11:12:41;;;;;;;7.82;2.70;;;;;;;11.14;90.16;99925.00;5065008;28;20056;-44
2022/02/14 11:15:10;;;;;;;5.72;2.15;;;;;;;11.02;88.45;99937.38;5051249;28;20574;-45
2022/02/14 11:17:44;;;;;;;3.58;1.92;;;;;;;10.96;88.75;99937.84;5060528;28;20499;-43
2022/02/14 11:20:13;;;;;;;5.30;2.33;;;;;;;11.24;88.84;99936.44;5066396;28;20063;-44
2022/02/14 11:22:44;;;;;;;5.90;2.30;;;;;;;11.21;88.05;99935.84;5063804;28;20033;-45
2022/02/14 11:25:21;;;;;;;4.68;2.10;;;;;;;11.02;88.47;99945.25;5064606;28;20033;-45
2022/02/14 11:27:57;;;;;;;3.90;2.20;;;;;;;11.08;87.80;99946.56;5066837;28;20045;-45
2022/02/14 11:30:27;;;;;;;3.17;2.17;;;;;;;11.25;87.44;99961.81;5064351;28;20051;-48
2022/02/14 11:33:09;;;;;;;3.97;2.22;;;;;;;11.51;85.38;99958.81;5071087;28;20475;-48
2022/02/14 11:35:37;;;;;;;6.53;1.88;;;;;;;11.76;82.93;99962.03;5064906;28;20037;-45
2022/02/14 11:38:06;;;;;;;5.45;1.98;;;;;;;11.80;82.55;99968.72;5059009;28;20561;-47
2022/02/14 11:40:40;;;;;;;2.55;1.70;;;;;;;11.92;82.82;99974.75;5071017;28;20099;-44
2022/02/14 11:43:12;;;;;;;5.75;2.00;;;;;;;11.69;81.50;99966.16;5056701;28;20052;-47
2022/02/14 11:45:41;;;;;;;3.10;2.00;;;;;;;11.63;81.63;99968.31;5056923;28;20392;-46
2022/02/14 11:48:26;;;;;;;4.40;1.83;;;;;;;11.53;80.58;99956.88;5057723;28;20037;-50
2022/02/14 11:51:07;;;;;;;2.95;1.70;;;;;;;11.66;77.49;99961.97;5051933;28;20520;-47